| time (UTC) | temp C | wind direction | speed KPH | gust KPH | rain 1hr cm | rain 24hr cm | rain mn cm | humidity % | barometer mb |
| 20260508012353 | 10 | 180 | 0.0 | 0.0 | 0.00 | 0.38 | 0.41 | 93 | 1007.7 |
| 20260508011854 | 10 | 180 | 0.0 | 0.0 | 0.00 | 0.38 | 0.41 | 93 | 1007.7 |
| 20260508011347 | 10 | 180 | 0.0 | 0.0 | 0.00 | 0.38 | 0.41 | 93 | 1007.7 |
| 20260508010843 | 10 | 180 | 0.0 | 0.0 | 0.00 | 0.38 | 0.41 | 93 | 1007.6 |
| 20260508010336 | 10 | 180 | 0.0 | 0.0 | 0.00 | 0.38 | 0.41 | 93 | 1007.6 |
| 20260508010055 | 10 | 180 | 0.0 | 0.0 | 0.00 | 0.38 | 0.41 | 93 | 1007.7 |
| 20260508005323 | 10 | 180 | 0.0 | 0.0 | 0.00 | 0.38 | 0.41 | 93 | 1007.5 |
| 20260508004818 | 10 | 180 | 0.0 | 0.0 | 0.00 | 0.38 | 0.41 | 93 | 1007.5 |
| 20260508004312 | 11 | 180 | 0.0 | 0.0 | 0.00 | 0.38 | 0.41 | 93 | 1007.4 |
| 20260508003806 | 11 | 180 | 0.0 | 0.0 | 0.00 | 0.38 | 0.41 | 93 | 1007.4 |
| 20260508003521 | 11 | 180 | 0.0 | 0.0 | 0.00 | 0.38 | 0.41 | 93 | 1007.4 |
| 20260508002755 | 11 | 180 | 0.0 | 0.0 | 0.00 | 0.38 | 0.41 | 93 | 1007.4 |
| 20260508002248 | 11 | 180 | 0.0 | 0.0 | 0.00 | 0.38 | 0.41 | 93 | 1007.4 |
| 20260508001743 | 11 | 180 | 0.0 | 0.0 | 0.00 | 0.38 | 0.41 | 92 | 1007.3 |
| 20260508001236 | 11 | 180 | 0.0 | 0.0 | 0.00 | 0.38 | 0.41 | 92 | 1007.2 |
| 20260508000730 | 11 | 180 | 0.0 | 0.0 | 0.00 | 0.38 | 0.41 | 92 | 1007.0 |
| 20260508000444 | 11 | 180 | 0.0 | 0.0 | 0.00 | 0.38 | 0.41 | 92 | 1006.9 |
| 20260507235718 | 11 | 180 | 0.0 | 0.0 | 0.00 | 0.38 | 0.41 | 92 | 1006.8 |
| 20260507235212 | 11 | 180 | 0.0 | 0.0 | 0.00 | 0.38 | 0.41 | 92 | 1006.8 |
| 20260507234706 | 11 | 180 | 0.0 | 0.0 | 0.00 | 0.38 | 0.41 | 92 | 1006.7 |
| 20260507234200 | 11 | 180 | 0.0 | 0.0 | 0.00 | 0.38 | 0.41 | 92 | 1006.6 |
| 20260507233654 | 11 | 180 | 0.0 | 0.0 | 0.00 | 0.38 | 0.41 | 92 | 1006.5 |
| 20260507233148 | 11 | 180 | 0.0 | 0.0 | 0.00 | 0.38 | 0.41 | 92 | 1006.6 |
| 20260507232642 | 11 | 180 | 0.0 | 0.0 | 0.00 | 0.38 | 0.41 | 92 | 1006.5 |
| 20260507232357 | 11 | 180 | 0.0 | 0.0 | 0.00 | 0.38 | 0.41 | 92 | 1006.5 |
| 20260507231629 | 12 | 180 | 0.0 | 0.0 | 0.00 | 0.38 | 0.41 | 91 | 1006.3 |
| 20260507231124 | 12 | 180 | 0.0 | 0.0 | 0.00 | 0.38 | 0.41 | 91 | 1006.3 |
| 20260507230836 | 12 | 180 | 0.0 | 0.0 | 0.00 | 0.38 | 0.41 | 91 | 1006.2 |
| 20260507230112 | 12 | 180 | 0.0 | 0.0 | 0.00 | 0.38 | 0.41 | 90 | 1006.2 |
| 20260507225826 | 12 | 180 | 0.0 | 0.0 | 0.00 | 0.38 | 0.41 | 90 | 1006.3 |
| 20260507225100 | 12 | 180 | 0.0 | 0.0 | 0.00 | 0.38 | 0.41 | 90 | 1006.3 |
| 20260507224554 | 12 | 180 | 0.0 | 0.0 | 0.00 | 0.38 | 0.41 | 90 | 1006.3 |
| 20260507224048 | 12 | 180 | 0.0 | 0.0 | 0.00 | 0.38 | 0.41 | 90 | 1006.3 |
| 20260507223542 | 12 | 180 | 0.0 | 0.0 | 0.00 | 0.38 | 0.41 | 90 | 1006.2 |
| 20260507223036 | 12 | 180 | 0.0 | 0.0 | 0.00 | 0.38 | 0.41 | 90 | 1006.4 |
| 20260507222530 | 12 | 180 | 0.0 | 0.0 | 0.00 | 0.38 | 0.41 | 91 | 1006.3 |
| 20260507222024 | 12 | 180 | 0.0 | 0.0 | 0.00 | 0.38 | 0.41 | 91 | 1006.3 |
| 20260507221518 | 12 | 180 | 0.0 | 0.0 | 0.00 | 0.38 | 0.41 | 91 | 1006.4 |
| 20260507221012 | 12 | 180 | 0.0 | 0.0 | 0.00 | 0.38 | 0.41 | 91 | 1006.1 |
| 20260507220727 | 12 | 180 | 0.0 | 0.0 | 0.00 | 0.38 | 0.41 | 90 | 1006.1 |
| 20260507220000 | 12 | 180 | 0.0 | 0.0 | 0.00 | 0.38 | 0.41 | 91 | 1006.2 |
| 20260507215454 | 12 | 180 | 0.0 | 0.0 | 0.00 | 0.38 | 0.41 | 90 | 1006.1 |
| 20260507214948 | 12 | 180 | 0.0 | 0.0 | 0.03 | 0.38 | 0.41 | 90 | 1006.1 |
| 20260507214442 | 12 | 180 | 0.0 | 0.0 | 0.05 | 0.38 | 0.41 | 90 | 1006.3 |
| 20260507213936 | 12 | 180 | 0.0 | 0.0 | 0.08 | 0.38 | 0.41 | 90 | 1006.4 |
| 20260507213654 | 12 | 180 | 0.0 | 0.0 | 0.13 | 0.38 | 0.41 | 90 | 1006.1 |
| 20260507212924 | 12 | 180 | 0.0 | 0.0 | 0.15 | 0.38 | 0.41 | 90 | 1005.9 |
| 20260507212418 | 12 | 180 | 0.0 | 0.0 | 0.18 | 0.38 | 0.41 | 91 | 1006.0 |
| 20260507211912 | 12 | 180 | 0.0 | 0.0 | 0.20 | 0.38 | 0.41 | 91 | 1006.1 |
| 20260507211407 | 12 | 180 | 0.0 | 0.0 | 0.23 | 0.38 | 0.41 | 91 | 1006.1 |
| 20260507210901 | 12 | 180 | 0.0 | 0.0 | 0.28 | 0.38 | 0.41 | 91 | 1005.8 |
| 20260507210609 | 11 | 180 | 0.0 | 0.0 | 0.30 | 0.38 | 0.41 | 91 | 1006.0 |
| 20260507205849 | 11 | 180 | 0.0 | 0.0 | 0.30 | 0.38 | 0.41 | 91 | 1006.2 |
| 20260507205342 | 11 | 180 | 0.0 | 0.0 | 0.30 | 0.38 | 0.41 | 90 | 1006.1 |
| 20260507204836 | 11 | 180 | 0.0 | 0.0 | 0.28 | 0.36 | 0.38 | 89 | 1006.5 |
| 20260507204330 | 11 | 180 | 0.0 | 0.0 | 0.25 | 0.33 | 0.36 | 89 | 1006.7 |
| 20260507203824 | 11 | 180 | 0.0 | 0.0 | 0.23 | 0.30 | 0.33 | 88 | 1006.5 |
| 20260507203317 | 11 | 180 | 0.0 | 0.0 | 0.18 | 0.25 | 0.28 | 87 | 1006.6 |
| 20260507203044 | 12 | 180 | 0.0 | 0.0 | 0.15 | 0.23 | 0.25 | 87 | 1006.5 |
| 20260507202315 | 12 | 180 | 0.0 | 0.0 | 0.10 | 0.18 | 0.23 | 87 | 1006.4 |
| 20260507201814 | 12 | 180 | 0.0 | 0.0 | 0.10 | 0.18 | 0.20 | 86 | 1006.2 |
| 20260507201310 | 12 | 180 | 0.0 | 0.0 | 0.08 | 0.15 | 0.18 | 86 | 1006.2 |
| 20260507200808 | 12 | 180 | 0.0 | 0.0 | 0.03 | 0.10 | 0.13 | 85 | 1006.3 |
| 20260507200306 | 12 | 180 | 0.0 | 0.0 | 0.00 | 0.08 | 0.10 | 84 | 1006.3 |
| 20260507200023 | 13 | 180 | 0.0 | 0.0 | 0.00 | 0.08 | 0.10 | 84 | 1006.7 |
| 20260507195306 | 13 | 180 | 0.0 | 0.0 | 0.00 | 0.08 | 0.10 | 82 | 1006.7 |
| 20260507194806 | 13 | 180 | 0.0 | 0.0 | 0.00 | 0.08 | 0.10 | 82 | 1006.3 |
| 20260507194305 | 13 | 180 | 0.0 | 0.0 | 0.00 | 0.08 | 0.10 | 82 | 1006.4 |
| 20260507193805 | 13 | 180 | 0.0 | 0.0 | 0.00 | 0.08 | 0.10 | 82 | 1006.5 |
| 20260507193307 | 13 | 180 | 0.0 | 0.0 | 0.00 | 0.08 | 0.10 | 80 | 1006.5 |
| 20260507192806 | 13 | 180 | 0.0 | 0.0 | 0.00 | 0.08 | 0.10 | 80 | 1006.8 |
| 20260507192305 | 13 | 180 | 0.0 | 0.0 | 0.00 | 0.08 | 0.10 | 79 | 1006.6 |
| 20260507191801 | 13 | 180 | 0.0 | 0.0 | 0.00 | 0.08 | 0.10 | 77 | 1007.0 |
| 20260507191302 | 13 | 180 | 0.0 | 1.6 | 0.00 | 0.08 | 0.10 | 79 | 1006.9 |
| 20260507190802 | 13 | 134 | 0.0 | 1.6 | 0.00 | 0.08 | 0.10 | 79 | 1006.8 |
| 20260507190301 | 13 | 18 | 0.0 | 0.0 | 0.00 | 0.08 | 0.10 | 77 | 1006.8 |
| 20260507185801 | 13 | 18 | 0.0 | 1.6 | 0.00 | 0.08 | 0.10 | 78 | 1006.7 |
| 20260507185305 | 13 | 18 | 0.0 | 3.2 | 0.00 | 0.08 | 0.10 | 76 | 1006.8 |
| 20260507184802 | 13 | 18 | 0.0 | 3.2 | 0.00 | 0.08 | 0.10 | 77 | 1006.7 |
| 20260507184302 | 13 | 218 | 0.0 | 1.6 | 0.00 | 0.08 | 0.10 | 78 | 1006.8 |
| 20260507184024 | 13 | 218 | 0.0 | 1.6 | 0.00 | 0.08 | 0.10 | 77 | 1006.8 |
| 20260507183301 | 13 | 218 | 0.0 | 0.0 | 0.00 | 0.08 | 0.10 | 78 | 1007.0 |
| 20260507182802 | 13 | 218 | 0.0 | 1.6 | 0.00 | 0.08 | 0.10 | 78 | 1006.9 |
| 20260507182301 | 13 | 218 | 0.0 | 1.6 | 0.00 | 0.08 | 0.10 | 79 | 1006.9 |
| 20260507181801 | 13 | 218 | 0.0 | 0.0 | 0.00 | 0.08 | 0.10 | 80 | 1007.0 |
| 20260507181301 | 13 | 218 | 0.0 | 0.0 | 0.00 | 0.08 | 0.10 | 80 | 1006.9 |
| 20260507180805 | 13 | 218 | 0.0 | 0.0 | 0.00 | 0.08 | 0.10 | 80 | 1006.9 |
| 20260507180526 | 13 | 218 | 0.0 | 3.2 | 0.00 | 0.08 | 0.10 | 79 | 1006.8 |
| 20260507175802 | 13 | 218 | 0.0 | 3.2 | 0.00 | 0.08 | 0.10 | 79 | 1006.9 |
| 20260507175254 | 13 | 38 | 0.0 | 0.0 | 0.00 | 0.08 | 0.10 | 81 | 1007.0 |
| 20260507174749 | 13 | 38 | 0.0 | 0.0 | 0.00 | 0.08 | 0.10 | 82 | 1007.0 |
| 20260507174244 | 13 | 38 | 0.0 | 0.0 | 0.00 | 0.08 | 0.10 | 82 | 1007.1 |
| 20260507173738 | 13 | 38 | 0.0 | 0.0 | 0.00 | 0.08 | 0.10 | 82 | 1007.2 |
| 20260507173232 | 13 | 37 | 0.0 | 1.6 | 0.00 | 0.08 | 0.10 | 83 | 1007.4 |
| 20260507172726 | 13 | 37 | 0.0 | 1.6 | 0.00 | 0.08 | 0.10 | 84 | 1007.3 |
| 20260507172220 | 13 | 37 | 0.0 | 0.0 | 0.00 | 0.08 | 0.10 | 85 | 1007.3 |
| 20260507171714 | 13 | 37 | 0.0 | 1.6 | 0.00 | 0.08 | 0.10 | 85 | 1007.4 |
| 20260507171208 | 12 | 37 | 0.0 | 1.6 | 0.00 | 0.08 | 0.10 | 85 | 1007.6 |
| 20260507170701 | 12 | 37 | 0.0 | 1.6 | 0.00 | 0.08 | 0.10 | 85 | 1007.6 |
| 20260507170156 | 12 | 37 | 0.0 | 1.6 | 0.03 | 0.08 | 0.10 | 85 | 1007.7 |
| 20260507165656 | 12 | 37 | 0.0 | 1.6 | 0.03 | 0.08 | 0.10 | 86 | 1007.8 |
| 20260507165157 | 12 | 34 | 0.0 | 1.6 | 0.03 | 0.08 | 0.10 | 86 | 1007.8 |
| 20260507164658 | 12 | 34 | 0.0 | 1.6 | 0.03 | 0.08 | 0.10 | 86 | 1007.8 |
| 20260507164154 | 12 | 46 | 0.0 | 1.6 | 0.03 | 0.08 | 0.10 | 88 | 1007.8 |
| 20260507163653 | 12 | 46 | 0.0 | 1.6 | 0.03 | 0.08 | 0.10 | 88 | 1007.9 |
| 20260507163151 | 12 | 44 | 0.0 | 1.6 | 0.05 | 0.08 | 0.10 | 89 | 1008.0 |
| 20260507162648 | 12 | 44 | 0.0 | 1.6 | 0.05 | 0.08 | 0.10 | 89 | 1008.1 |
| 20260507162147 | 12 | 49 | 0.0 | 1.6 | 0.08 | 0.08 | 0.10 | 90 | 1007.9 |
| 20260507161914 | 12 | 49 | 0.0 | 1.6 | 0.08 | 0.08 | 0.10 | 90 | 1008.0 |
| 20260507161143 | 12 | 49 | 0.0 | 1.6 | 0.08 | 0.08 | 0.10 | 89 | 1008.0 |
| 20260507160640 | 12 | 49 | 0.0 | 1.6 | 0.08 | 0.08 | 0.10 | 89 | 1008.1 |
| 20260507160141 | 12 | 49 | 0.0 | 1.6 | 0.05 | 0.05 | 0.08 | 89 | 1008.1 |
| 20260507155642 | 12 | 50 | 0.0 | 1.6 | 0.05 | 0.05 | 0.08 | 89 | 1008.2 |
| 20260507155143 | 12 | 83 | 0.0 | 1.6 | 0.05 | 0.05 | 0.08 | 89 | 1008.1 |
| 20260507154640 | 12 | 95 | 0.0 | 1.6 | 0.05 | 0.05 | 0.08 | 87 | 1008.0 |
| 20260507154138 | 12 | 95 | 0.0 | 1.6 | 0.05 | 0.05 | 0.08 | 86 | 1008.3 |
| 20260507153848 | 12 | 96 | 0.0 | 1.6 | 0.03 | 0.03 | 0.05 | 84 | 1008.0 |
| 20260507153733 | 12 | 96 | 0.0 | 1.6 | 0.05 | 0.05 | 0.08 | 85 | 1008.3 |
| 20260507152633 | 13 | 319 | 0.0 | 1.6 | 0.03 | 0.03 | 0.05 | 83 | 1008.1 |
| 20260507152127 | 13 | 38 | 0.0 | 1.6 | 0.00 | 0.00 | 0.05 | 81 | 1007.9 |
| 20260507152116 | 13 | 38 | 0.0 | 1.6 | 0.00 | 0.00 | 0.03 | 80 | 1008.0 |
| 20260507151336 | 13 | 32 | 0.0 | 1.6 | 0.00 | 0.00 | 0.03 | 79 | 1007.9 |
| 20260507150609 | 13 | 30 | 0.0 | 4.8 | 0.00 | 0.00 | 0.03 | 78 | 1008.2 |
| 20260507150329 | 13 | 23 | 0.0 | 4.8 | 0.00 | 0.00 | 0.03 | 77 | 1008.3 |
| 20260507150048 | 13 | 52 | 0.0 | 6.4 | 0.00 | 0.00 | 0.03 | 78 | 1008.0 |
| 20260507145052 | 13 | 215 | 0.0 | 6.4 | 0.00 | 0.00 | 0.03 | 78 | 1008.0 |
| 20260507144545 | 13 | 35 | 0.0 | 3.2 | 0.00 | 0.00 | 0.03 | 78 | 1007.7 |
| 20260507144039 | 13 | 27 | 0.0 | 3.2 | 0.00 | 0.00 | 0.03 | 78 | 1007.7 |
| 20260507143534 | 14 | 32 | 0.0 | 3.2 | 0.00 | 0.00 | 0.03 | 78 | 1007.8 |
| 20260507143027 | 14 | 191 | 0.0 | 4.8 | 0.00 | 0.00 | 0.03 | 78 | 1007.9 |
| 20260507142738 | 14 | 20 | 0.0 | 4.8 | 0.00 | 0.00 | 0.03 | 79 | 1007.9 |
| 20260507142015 | 14 | 38 | 0.0 | 1.6 | 0.00 | 0.00 | 0.03 | 80 | 1008.0 |
| 20260507141727 | 14 | 38 | 0.0 | 4.8 | 0.00 | 0.00 | 0.03 | 79 | 1008.2 |
| 20260507141232 | 14 | 39 | 1.6 | 4.8 | 0.00 | 0.00 | 0.03 | 79 | 1008.2 |
| 20260507140457 | 14 | 31 | 1.6 | 4.8 | 0.00 | 0.00 | 0.03 | 78 | 1008.2 |
| 20260507135952 | 14 | 32 | 1.6 | 4.8 | 0.00 | 0.00 | 0.03 | 78 | 1008.2 |
| 20260507135444 | 14 | 35 | 1.6 | 4.8 | 0.00 | 0.00 | 0.03 | 78 | 1008.1 |
| 20260507134939 | 14 | 20 | 1.6 | 4.8 | 0.00 | 0.00 | 0.03 | 79 | 1008.0 |
| 20260507134433 | 14 | 31 | 0.0 | 3.2 | 0.00 | 0.00 | 0.03 | 79 | 1008.2 |
| 20260507133929 | 14 | 30 | 0.0 | 3.2 | 0.00 | 0.00 | 0.03 | 80 | 1008.0 |
| 20260507133421 | 14 | 31 | 1.6 | 6.4 | 0.00 | 0.00 | 0.03 | 80 | 1008.0 |
| 20260507132915 | 14 | 32 | 1.6 | 6.4 | 0.00 | 0.00 | 0.03 | 80 | 1007.8 |
| 20260507132409 | 14 | 25 | 0.0 | 3.2 | 0.00 | 0.00 | 0.03 | 80 | 1008.3 |
| 20260507131905 | 14 | 36 | 1.6 | 4.8 | 0.00 | 0.00 | 0.03 | 80 | 1007.8 |
| 20260507131356 | 14 | 48 | 0.0 | 4.8 | 0.00 | 0.00 | 0.03 | 81 | 1007.8 |
| 20260507130851 | 14 | 41 | 0.0 | 3.2 | 0.00 | 0.00 | 0.03 | 82 | 1008.0 |
| 20260507130345 | 14 | 37 | 0.0 | 4.8 | 0.00 | 0.00 | 0.03 | 83 | 1007.7 |
| 20260507125839 | 14 | 27 | 0.0 | 4.8 | 0.00 | 0.00 | 0.03 | 84 | 1007.7 |
| 20260507125333 | 14 | 20 | 0.0 | 3.2 | 0.00 | 0.00 | 0.03 | 85 | 1007.9 |
| 20260507124827 | 14 | 214 | 0.0 | 1.6 | 0.00 | 0.00 | 0.03 | 86 | 1007.7 |
| 20260507124811 | 13 | 24 | 0.0 | 0.0 | 0.00 | 0.00 | 0.03 | 86 | 1007.9 |
| 20260507124040 | 13 | 23 | 0.0 | 0.0 | 0.00 | 0.00 | 0.03 | 86 | 1007.7 |
| 20260507123534 | 13 | 23 | 0.0 | 0.0 | 0.00 | 0.00 | 0.03 | 86 | 1007.8 |
| 20260507122803 | 13 | 32 | 0.0 | 1.6 | 0.00 | 0.00 | 0.03 | 86 | 1007.8 |
| 20260507122257 | 13 | 29 | 0.0 | 1.6 | 0.00 | 0.00 | 0.03 | 86 | 1007.8 |
| 20260507121751 | 13 | 29 | 0.0 | 6.4 | 0.00 | 0.00 | 0.03 | 85 | 1007.7 |
| 20260507121245 | 13 | 37 | 0.0 | 6.4 | 0.00 | 0.00 | 0.03 | 85 | 1007.6 |
| 20260507120739 | 13 | 27 | 0.0 | 4.8 | 0.00 | 0.00 | 0.03 | 85 | 1007.4 |
| 20260507120233 | 13 | 27 | 0.0 | 4.8 | 0.00 | 0.00 | 0.03 | 85 | 1007.5 |
| 20260507115729 | 13 | 27 | 0.0 | 3.2 | 0.00 | 0.00 | 0.03 | 85 | 1007.7 |
| 20260507115221 | 13 | 38 | 0.0 | 3.2 | 0.00 | 0.00 | 0.03 | 84 | 1007.7 |
| 20260507114939 | 13 | 20 | 0.0 | 4.8 | 0.00 | 0.00 | 0.03 | 84 | 1007.9 |
| 20260507114209 | 13 | 19 | 1.6 | 4.8 | 0.00 | 0.00 | 0.03 | 84 | 1007.7 |
| 20260507113703 | 13 | 27 | 0.0 | 4.8 | 0.00 | 0.00 | 0.03 | 83 | 1007.7 |
| 20260507113157 | 13 | 25 | 0.0 | 4.8 | 0.00 | 0.00 | 0.03 | 83 | 1007.7 |
| 20260507112651 | 13 | 32 | 0.0 | 4.8 | 0.00 | 0.00 | 0.03 | 83 | 1007.5 |
| 20260507112145 | 13 | 34 | 0.0 | 1.6 | 0.00 | 0.00 | 0.03 | 83 | 1007.3 |
| 20260507111639 | 13 | 29 | 0.0 | 1.6 | 0.00 | 0.00 | 0.03 | 83 | 1007.2 |
| 20260507111134 | 13 | 29 | 1.6 | 6.4 | 0.00 | 0.00 | 0.03 | 83 | 1007.2 |
| 20260507110627 | 13 | 28 | 1.6 | 6.4 | 0.00 | 0.00 | 0.03 | 82 | 1007.4 |
| 20260507110121 | 13 | 24 | 0.0 | 3.2 | 0.00 | 0.00 | 0.03 | 83 | 1007.4 |
| 20260507105618 | 13 | 33 | 0.0 | 3.2 | 0.00 | 0.00 | 0.03 | 83 | 1007.4 |
| 20260507105109 | 13 | 33 | 0.0 | 3.2 | 0.00 | 0.00 | 0.03 | 83 | 1007.1 |
| 20260507104603 | 13 | 32 | 0.0 | 3.2 | 0.00 | 0.00 | 0.03 | 83 | 1007.0 |
| 20260507104057 | 13 | 32 | 0.0 | 3.2 | 0.00 | 0.00 | 0.03 | 83 | 1007.0 |
| 20260507103812 | 13 | 30 | 0.0 | 1.6 | 0.00 | 0.00 | 0.03 | 83 | 1006.9 |
| 20260507103045 | 13 | 30 | 0.0 | 1.6 | 0.00 | 0.00 | 0.03 | 84 | 1006.9 |
| 20260507102800 | 13 | 30 | 0.0 | 1.6 | 0.00 | 0.00 | 0.03 | 84 | 1006.8 |
| 20260507102040 | 13 | 30 | 0.0 | 1.6 | 0.00 | 0.00 | 0.03 | 85 | 1006.6 |
| 20260507101541 | 13 | 30 | 0.0 | 1.6 | 0.00 | 0.00 | 0.03 | 85 | 1006.4 |
| 20260507101037 | 13 | 30 | 0.0 | 4.8 | 0.00 | 0.00 | 0.03 | 84 | 1006.5 |
| 20260507100536 | 13 | 30 | 1.6 | 4.8 | 0.00 | 0.00 | 0.03 | 84 | 1006.8 |
| 20260507100300 | 13 | 32 | 1.6 | 4.8 | 0.00 | 0.00 | 0.03 | 85 | 1006.9 |
| 20260507095536 | 13 | 30 | 1.6 | 4.8 | 0.00 | 0.00 | 0.03 | 86 | 1007.0 |
| 20260507095036 | 13 | 30 | 0.0 | 4.8 | 0.00 | 0.00 | 0.03 | 88 | 1007.1 |
| 20260507094538 | 13 | 30 | 0.0 | 4.8 | 0.00 | 0.00 | 0.03 | 88 | 1006.9 |
| 20260507094039 | 14 | 32 | 0.0 | 3.2 | 0.00 | 0.00 | 0.03 | 89 | 1007.0 |
| 20260507093540 | 14 | 32 | 0.0 | 3.2 | 0.00 | 0.00 | 0.03 | 88 | 1007.1 |
| 20260507093039 | 14 | 28 | 1.6 | 1.6 | 0.00 | 0.00 | 0.03 | 89 | 1007.1 |
| 20260507092534 | 14 | 33 | 0.0 | 0.0 | 0.00 | 0.00 | 0.03 | 89 | 1006.8 |
| 20260507092223 | 14 | 30 | 0.0 | 6.4 | 0.03 | 0.28 | 0.03 | 89 | 1006.9 |
| 20260507091724 | 14 | 33 | 0.0 | 1.6 | 0.03 | 0.28 | 0.03 | 90 | 1006.8 |
| 20260507091225 | 14 | 32 | 1.6 | 3.2 | 0.03 | 0.28 | 0.03 | 89 | 1006.8 |
| 20260507090725 | 14 | 22 | 1.6 | 4.8 | 0.03 | 0.28 | 0.03 | 89 | 1006.7 |
| 20260507090225 | 14 | 18 | 0.0 | 4.8 | 0.03 | 0.28 | 0.03 | 89 | 1006.8 |
| 20260507085725 | 15 | 28 | 1.6 | 4.8 | 0.03 | 0.28 | 0.03 | 88 | 1006.7 |
| 20260507085223 | 15 | 28 | 1.6 | 4.8 | 0.03 | 0.28 | 0.03 | 88 | 1006.8 |
| 20260507084723 | 15 | 27 | 0.0 | 4.8 | 0.03 | 0.28 | 0.03 | 88 | 1006.8 |
| 20260507084225 | 15 | 217 | 0.0 | 1.6 | 0.03 | 0.28 | 0.03 | 88 | 1006.5 |
| 20260507083724 | 15 | 209 | 0.0 | 3.2 | 0.00 | 0.25 | 0.00 | 87 | 1006.7 |
| 20260507083224 | 15 | 31 | 1.6 | 9.7 | 0.00 | 0.25 | 0.00 | 87 | 1006.5 |
| 20260507082724 | 15 | 32 | 3.2 | 9.7 | 0.00 | 0.25 | 0.00 | 86 | 1006.3 |
| 20260507082223 | 15 | 33 | 3.2 | 8.0 | 0.00 | 0.25 | 0.00 | 85 | 1006.5 |
| 20260507081723 | 16 | 30 | 3.2 | 8.0 | 0.00 | 0.25 | 0.00 | 85 | 1006.5 |
| 20260507081224 | 16 | 34 | 1.6 | 6.4 | 0.00 | 0.25 | 0.00 | 86 | 1006.6 |
| 20260507080725 | 16 | 338 | 1.6 | 6.4 | 0.00 | 0.25 | 0.00 | 86 | 1006.3 |
| 20260507080222 | 17 | 32 | 1.6 | 8.0 | 0.00 | 0.25 | 0.00 | 85 | 1006.2 |
| 20260507075722 | 18 | 23 | 1.6 | 8.0 | 0.00 | 0.25 | 0.00 | 87 | 1005.9 |
| 20260507075223 | 18 | 25 | 1.6 | 6.4 | 0.00 | 0.25 | 0.00 | 89 | 1005.7 |
| 20260507074721 | 18 | 25 | 0.0 | 6.4 | 0.00 | 0.25 | 0.00 | 90 | 1005.4 |
| 20260507074221 | 19 | 65 | 0.0 | 0.0 | 0.00 | 0.25 | 0.00 | 90 | 1005.5 |
| 20260507073945 | 19 | 152 | 0.0 | 0.0 | 0.00 | 0.25 | 0.00 | 90 | 1005.6 |
| 20260507073224 | 19 | 153 | 0.0 | 0.0 | 0.00 | 0.25 | 0.00 | 89 | 1005.6 |
| 20260507072720 | 19 | 152 | 0.0 | 0.0 | 0.00 | 0.25 | 0.00 | 89 | 1005.4 |
| 20260507072219 | 19 | 153 | 0.0 | 0.0 | 0.00 | 0.25 | 0.00 | 88 | 1005.5 |
| 20260507071717 | 20 | 153 | 0.0 | 0.0 | 0.00 | 0.25 | 0.00 | 88 | 1005.6 |
| 20260507071219 | 20 | 153 | 0.0 | 0.0 | 0.00 | 0.25 | 0.00 | 87 | 1005.6 |
| 20260507070718 | 20 | 152 | 0.0 | 0.0 | 0.00 | 0.25 | 0.00 | 87 | 1005.7 |
| 20260507070218 | 20 | 29 | 0.0 | 0.0 | 0.00 | 0.25 | 0.00 | 86 | 1005.6 |
| 20260507065717 | 20 | 29 | 0.0 | 1.6 | 0.00 | 0.25 | 0.00 | 86 | 1005.4 |
| 20260507065216 | 20 | 29 | 0.0 | 6.4 | 0.00 | 0.25 | 0.00 | 85 | 1005.0 |
| 20260507064715 | 20 | 224 | 0.0 | 6.4 | 0.00 | 0.25 | 0.00 | 85 | 1005.1 |
| 20260507064214 | 20 | 197 | 0.0 | 1.6 | 0.00 | 0.25 | 0.00 | 85 | 1004.9 |
| 20260507063714 | 20 | 223 | 0.0 | 1.6 | 0.00 | 0.25 | 0.00 | 85 | 1004.9 |
| 20260507063428 | 20 | 214 | 0.0 | 3.2 | 0.00 | 0.25 | 0.00 | 84 | 1004.8 |
| 20260507062709 | 20 | 221 | 0.0 | 4.8 | 0.00 | 0.25 | 0.00 | 84 | 1004.7 |
| 20260507062211 | 20 | 174 | 0.0 | 8.0 | 0.00 | 0.25 | 0.00 | 84 | 1004.5 |
| 20260507061927 | 20 | 6 | 0.0 | 8.0 | 0.00 | 0.25 | 0.00 | 84 | 1004.4 |
| 20260507061204 | 20 | 359 | 0.0 | 1.6 | 0.00 | 0.25 | 0.00 | 84 | 1004.4 |
| 20260507060657 | 20 | 31 | 0.0 | 6.4 | 0.00 | 0.25 | 0.00 | 84 | 1004.3 |
| 20260507060152 | 20 | 230 | 0.0 | 6.4 | 0.00 | 0.25 | 0.00 | 84 | 1004.4 |
| 20260507055646 | 20 | 259 | 0.0 | 3.2 | 0.00 | 0.25 | 0.00 | 84 | 1004.5 |
| 20260507055139 | 20 | 135 | 0.0 | 3.2 | 0.00 | 0.25 | 0.00 | 84 | 1004.6 |
| 20260507054634 | 20 | 231 | 0.0 | 1.6 | 0.00 | 0.25 | 0.00 | 84 | 1004.7 |
| 20260507054128 | 20 | 220 | 0.0 | 3.2 | 0.00 | 0.25 | 0.00 | 84 | 1004.4 |
| 20260507053623 | 20 | 285 | 0.0 | 3.2 | 0.00 | 0.25 | 0.00 | 84 | 1004.5 |
| 20260507053116 | 20 | 285 | 0.0 | 1.6 | 0.00 | 0.25 | 0.00 | 84 | 1004.6 |
| 20260507052609 | 20 | 285 | 0.0 | 3.2 | 0.00 | 0.25 | 0.00 | 84 | 1004.7 |
| 20260507052324 | 20 | 8 | 0.0 | 3.2 | 0.00 | 0.25 | 0.00 | 84 | 1004.8 |
| 20260507051558 | 20 | 63 | 0.0 | 6.4 | 0.00 | 0.25 | 0.00 | 84 | 1005.1 |
| 20260507051052 | 20 | 347 | 0.0 | 6.4 | 0.00 | 0.25 | 0.00 | 84 | 1005.3 |
| 20260507050546 | 20 | 300 | 0.0 | 6.4 | 0.00 | 0.25 | 0.00 | 84 | 1005.4 |
| 20260507050040 | 20 | 255 | 0.0 | 4.8 | 0.00 | 0.25 | 0.00 | 84 | 1005.5 |
| 20260507050023 | 20 | 155 | 0.0 | 6.4 | 0.00 | 0.25 | 0.00 | 84 | 1005.6 |
| 20260507045028 | 20 | 37 | 1.6 | 6.4 | 0.00 | 0.25 | 0.00 | 84 | 1005.7 |
| 20260507044522 | 20 | 77 | 0.0 | 4.8 | 0.00 | 0.25 | 0.00 | 84 | 1005.7 |
| 20260507044016 | 20 | 218 | 0.0 | 3.2 | 0.00 | 0.25 | 0.00 | 83 | 1005.7 |
| 20260507043510 | 21 | 288 | 0.0 | 4.8 | 0.00 | 0.25 | 0.00 | 83 | 1005.8 |
| 20260507043004 | 21 | 212 | 1.6 | 4.8 | 0.00 | 0.25 | 0.00 | 83 | 1006.0 |
| 20260507042458 | 21 | 38 | 1.6 | 11.3 | 0.00 | 0.25 | 0.00 | 83 | 1006.1 |
| 20260507042446 | 20 | 211 | 1.6 | 11.3 | 0.00 | 0.25 | 0.00 | 83 | 1005.8 |
| 20260507041446 | 20 | 233 | 0.0 | 4.8 | 0.00 | 0.25 | 0.00 | 83 | 1005.7 |
| 20260507040940 | 21 | 183 | 0.0 | 3.2 | 0.00 | 0.25 | 0.00 | 83 | 1005.4 |
| 20260507040438 | 21 | 171 | 0.0 | 3.2 | 0.00 | 0.25 | 0.00 | 83 | 1005.5 |
| 20260507035937 | 21 | 48 | 0.0 | 6.4 | 0.00 | 0.25 | 0.25 | 83 | 1005.6 |
| 20260507035436 | 21 | 356 | 1.6 | 6.4 | 0.00 | 0.25 | 0.25 | 83 | 1005.7 |
| 20260507034936 | 20 | 210 | 1.6 | 8.0 | 0.00 | 0.25 | 0.25 | 83 | 1005.8 |
| 20260507034437 | 20 | 221 | 0.0 | 8.0 | 0.00 | 0.25 | 0.25 | 84 | 1006.0 |
| 20260507033936 | 20 | 117 | 1.6 | 4.8 | 0.00 | 0.25 | 0.25 | 84 | 1006.0 |
| 20260507033436 | 20 | 203 | 1.6 | 9.7 | 0.00 | 0.25 | 0.25 | 84 | 1005.8 |
| 20260507032936 | 20 | 150 | 1.6 | 9.7 | 0.00 | 0.25 | 0.25 | 84 | 1005.8 |
| 20260507032436 | 20 | 228 | 0.0 | 4.8 | 0.00 | 0.25 | 0.25 | 85 | 1005.7 |
| 20260507031937 | 20 | 200 | 0.0 | 4.8 | 0.00 | 0.25 | 0.25 | 85 | 1005.6 |
| 20260507031435 | 20 | 195 | 0.0 | 4.8 | 0.00 | 0.25 | 0.25 | 86 | 1005.4 |
| 20260507030935 | 20 | 150 | 0.0 | 6.4 | 0.00 | 0.25 | 0.25 | 86 | 1005.6 |
| 20260507030434 | 20 | 150 | 0.0 | 6.4 | 0.00 | 0.25 | 0.25 | 86 | 1005.5 |
| 20260507025935 | 20 | 344 | 0.0 | 1.6 | 0.00 | 0.25 | 0.25 | 86 | 1005.4 |
| 20260507025434 | 20 | 344 | 0.0 | 1.6 | 0.00 | 0.25 | 0.25 | 86 | 1005.4 |
| 20260507024934 | 20 | 347 | 0.0 | 1.6 | 0.00 | 0.25 | 0.25 | 86 | 1005.4 |
| 20260507024649 | 20 | 347 | 0.0 | 1.6 | 0.00 | 0.25 | 0.25 | 85 | 1005.3 |
| 20260507024136 | 20 | 18 | 0.0 | 0.0 | 0.00 | 0.25 | 0.25 | 85 | 1005.5 |
| 20260507024025 | 20 | 348 | 0.0 | 0.0 | 0.00 | 0.25 | 0.25 | 85 | 1005.3 |
| 20260507023148 | 20 | 22 | 0.0 | 1.6 | 0.00 | 0.25 | 0.25 | 85 | 1005.4 |
| 20260507022429 | 20 | 24 | 0.0 | 1.6 | 0.00 | 0.25 | 0.25 | 85 | 1005.6 |
| 20260507021929 | 20 | 9 | 0.0 | 1.6 | 0.00 | 0.25 | 0.25 | 85 | 1005.6 |
| 20260507021430 | 20 | 354 | 0.0 | 1.6 | 0.00 | 0.25 | 0.25 | 85 | 1005.8 |
| 20260507020924 | 20 | 354 | 0.0 | 3.2 | 0.00 | 0.25 | 0.25 | 85 | 1005.8 |
| 20260507020419 | 20 | 354 | 0.0 | 3.2 | 0.00 | 0.25 | 0.25 | 85 | 1005.8 |
| 20260507015912 | 20 | 25 | 0.0 | 1.6 | 0.00 | 0.25 | 0.25 | 85 | 1005.9 |
| 20260507015406 | 20 | 25 | 0.0 | 1.6 | 0.00 | 0.25 | 0.25 | 85 | 1005.9 |
| 20260507014900 | 20 | 21 | 0.0 | 1.6 | 0.00 | 0.25 | 0.25 | 85 | 1005.9 |
| 20260507014353 | 20 | 27 | 0.0 | 1.6 | 0.00 | 0.25 | 0.25 | 85 | 1005.9 |
| 20260507014113 | 20 | 30 | 0.0 | 1.6 | 0.00 | 0.25 | 0.25 | 85 | 1005.8 |
| 20260507013341 | 20 | 4 | 0.0 | 3.2 | 0.00 | 0.25 | 0.25 | 85 | 1005.9 |